createdAt,value
2023-03-15T00:00:55.828Z,7.52
2023-03-15T00:01:57.636Z,7.43
2023-03-15T00:02:59.614Z,7.55
2023-03-15T00:04:01.523Z,8.05
2023-03-15T00:05:04.173Z,7.72
2023-03-15T00:06:06.534Z,7.57
2023-03-15T00:07:08.501Z,7.20
2023-03-15T00:08:12.388Z,6.55
2023-03-15T00:09:15.601Z,6.75
2023-03-15T00:10:17.439Z,6.58
2023-03-15T00:11:19.589Z,5.77
2023-03-15T00:12:24.685Z,5.87
2023-03-15T00:13:26.489Z,5.57
2023-03-15T00:14:28.251Z,5.27
2023-03-15T00:15:30.111Z,4.92
2023-03-15T00:16:32.973Z,4.50
2023-03-15T00:17:34.955Z,4.65
2023-03-15T00:18:37.825Z,4.25
2023-03-15T00:19:40.337Z,4.58
2023-03-15T00:20:43.051Z,3.97
2023-03-15T00:21:52.574Z,4.40
2023-03-15T00:22:54.423Z,4.33
2023-03-15T00:23:56.722Z,4.73
2023-03-15T00:24:58.530Z,5.25
2023-03-15T00:26:00.300Z,5.50
2023-03-15T00:27:02.599Z,6.33
2023-03-15T00:28:04.707Z,7.07
2023-03-15T00:29:06.992Z,7.05
2023-03-15T00:30:09.517Z,7.12
2023-03-15T00:31:21.091Z,7.85
2023-03-15T00:32:23.078Z,8.32
2023-03-15T00:33:25.019Z,8.47
2023-03-15T00:34:26.790Z,8.97
2023-03-15T00:35:28.698Z,9.12
2023-03-15T00:36:32.206Z,9.85
2023-03-15T00:37:33.987Z,9.37
2023-03-15T00:38:41.822Z,10.13
2023-03-15T00:39:45.468Z,10.15
2023-03-15T00:40:47.334Z,10.02
2023-03-15T00:41:49.223Z,10.10
2023-03-15T00:42:51.269Z,9.62
2023-03-15T00:43:53.083Z,9.75
2023-03-15T00:44:55.943Z,9.93
2023-03-15T00:45:58.884Z,10.63
2023-03-15T00:47:00.751Z,10.57
2023-03-15T00:48:02.635Z,10.12
2023-03-15T00:49:05.064Z,9.82
2023-03-15T00:50:07.061Z,10.35
2023-03-15T00:51:15.114Z,9.98
2023-03-15T00:52:18.001Z,10.28
2023-03-15T00:53:19.820Z,10.43
2023-03-15T00:54:23.823Z,10.77
2023-03-15T00:55:27.055Z,10.48
2023-03-15T00:56:31.769Z,10.60
2023-03-15T00:57:34.587Z,10.67
2023-03-15T00:58:37.511Z,10.98
2023-03-15T00:59:39.458Z,11.03
2023-03-15T01:00:41.556Z,10.53
2023-03-15T01:01:44.880Z,10.65
2023-03-15T01:02:47.573Z,11.33
2023-03-15T01:03:50.569Z,10.67
2023-03-15T01:04:52.454Z,10.80
2023-03-15T01:05:54.280Z,10.50
2023-03-15T01:06:56.146Z,10.33
2023-03-15T01:07:58.000Z,10.33
2023-03-15T01:09:01.697Z,10.33
2023-03-15T01:10:06.302Z,10.50
2023-03-15T01:11:14.582Z,10.42
2023-03-15T01:12:16.461Z,10.37
2023-03-15T01:13:18.330Z,10.43
2023-03-15T01:14:20.241Z,9.38
2023-03-15T01:15:22.079Z,9.90
2023-03-15T01:16:25.107Z,9.70
2023-03-15T01:17:27.199Z,9.22
2023-03-15T01:18:30.068Z,9.42
2023-03-15T01:19:31.963Z,9.72
2023-03-15T01:20:34.057Z,9.60
2023-03-15T01:21:35.895Z,8.78
2023-03-15T01:22:37.768Z,9.63
2023-03-15T01:23:40.060Z,9.47
2023-03-15T01:24:41.943Z,8.82
2023-03-15T01:25:43.755Z,8.98
2023-03-15T01:26:45.585Z,9.00
2023-03-15T01:27:47.485Z,9.25
2023-03-15T01:28:50.220Z,9.38
2023-03-15T01:29:56.660Z,8.82
2023-03-15T01:31:00.006Z,8.90
2023-03-15T01:32:02.053Z,8.77
2023-03-15T01:33:03.966Z,8.62
2023-03-15T01:34:05.876Z,9.07
2023-03-15T01:35:08.066Z,8.67
2023-03-15T01:36:10.876Z,8.77
2023-03-15T01:37:14.632Z,8.67
2023-03-15T01:38:16.635Z,8.47
2023-03-15T01:39:18.457Z,8.62
2023-03-15T01:40:20.957Z,8.22
2023-03-15T01:41:24.853Z,8.72
2023-03-15T01:42:26.882Z,8.25
2023-03-15T01:43:33.180Z,8.28
2023-03-15T01:44:51.563Z,8.30
2023-03-15T01:45:59.356Z,8.02
2023-03-15T01:47:01.582Z,8.22
2023-03-15T01:48:03.742Z,7.68
2023-03-15T01:49:07.158Z,8.12
2023-03-15T01:50:11.623Z,8.33
2023-03-15T01:51:21.981Z,7.93
2023-03-15T01:52:30.453Z,8.27
2023-03-15T01:53:33.597Z,8.52
2023-03-15T01:54:49.820Z,7.98
2023-03-15T01:55:53.184Z,7.98
2023-03-15T01:57:02.067Z,7.85
2023-03-15T01:58:06.994Z,7.93
2023-03-15T01:59:14.297Z,7.82
2023-03-15T02:00:19.059Z,8.05
2023-03-15T02:01:21.646Z,7.65
2023-03-15T02:02:25.463Z,7.28
2023-03-15T02:03:32.600Z,7.63
2023-03-15T02:04:39.161Z,6.98
2023-03-15T02:05:46.285Z,6.78
2023-03-15T02:06:48.392Z,6.10
2023-03-15T02:07:51.099Z,6.53
2023-03-15T02:09:01.501Z,6.30
2023-03-15T02:10:09.078Z,6.40
2023-03-15T02:11:12.216Z,5.60
2023-03-15T02:12:14.135Z,5.22
2023-03-15T02:13:19.876Z,5.58
2023-03-15T02:14:22.509Z,5.37
2023-03-15T02:15:24.410Z,5.50
2023-03-15T02:16:28.634Z,5.42
2023-03-15T02:17:43.736Z,5.32
2023-03-15T02:18:47.705Z,5.65
2023-03-15T02:20:12.128Z,6.33
2023-03-15T02:21:41.184Z,5.70
2023-03-15T02:22:52.133Z,5.38
2023-03-15T02:24:03.392Z,5.30
2023-03-15T02:25:26.566Z,5.37
2023-03-15T02:26:35.405Z,5.30
2023-03-15T02:27:37.745Z,5.12
2023-03-15T02:28:43.200Z,4.93
2023-03-15T02:29:45.186Z,5.15
2023-03-15T02:30:48.328Z,5.27
2023-03-15T02:31:50.169Z,4.87
2023-03-15T02:32:52.101Z,4.95
2023-03-15T02:33:57.219Z,5.07
2023-03-15T02:34:59.304Z,5.13
2023-03-15T02:36:22.740Z,5.20
2023-03-15T02:37:24.783Z,4.80
2023-03-15T02:38:29.270Z,5.15
2023-03-15T02:39:32.054Z,4.78
2023-03-15T02:40:33.953Z,5.05
2023-03-15T02:41:44.893Z,5.28
2023-03-15T02:42:48.760Z,5.10
2023-03-15T02:43:54.666Z,5.43
2023-03-15T02:44:57.429Z,5.20
2023-03-15T02:46:00.664Z,5.22
2023-03-15T02:47:13.376Z,5.22
2023-03-15T02:48:17.093Z,5.22
2023-03-15T02:49:22.243Z,4.92
2023-03-15T02:50:24.123Z,4.93
2023-03-15T02:51:28.653Z,5.30
2023-03-15T02:52:30.472Z,5.30
2023-03-15T02:53:32.400Z,5.18
2023-03-15T02:54:34.387Z,5.03
2023-03-15T02:55:36.255Z,4.47
2023-03-15T02:56:38.088Z,4.97
2023-03-15T02:57:40.242Z,5.03
2023-03-15T02:58:47.023Z,5.13
2023-03-15T02:59:51.859Z,5.08
2023-03-15T03:00:53.942Z,5.07
2023-03-15T03:01:56.903Z,5.08
2023-03-15T03:02:58.656Z,4.92
2023-03-15T03:04:00.570Z,5.17
2023-03-15T03:05:02.378Z,4.83
2023-03-15T03:06:04.225Z,4.93
2023-03-15T03:07:05.961Z,4.92
2023-03-15T03:08:08.126Z,5.27
2023-03-15T03:09:11.454Z,5.23
2023-03-15T03:10:16.051Z,5.17
2023-03-15T03:11:17.943Z,4.97
2023-03-15T03:12:19.747Z,4.78
2023-03-15T03:13:21.548Z,4.88
2023-03-15T03:14:25.895Z,4.92
2023-03-15T03:15:27.719Z,4.48
2023-03-15T03:16:29.515Z,4.82
2023-03-15T03:17:31.431Z,4.60
2023-03-15T03:18:35.896Z,4.48
2023-03-15T03:19:37.784Z,4.45
2023-03-15T03:20:39.828Z,4.33
2023-03-15T03:21:44.966Z,4.17
2023-03-15T03:22:46.902Z,4.37
2023-03-15T03:23:48.710Z,4.43
2023-03-15T03:24:51.973Z,4.48
2023-03-15T03:25:54.874Z,4.57
2023-03-15T03:26:58.067Z,4.62
2023-03-15T03:28:00.024Z,4.43
2023-03-15T03:29:01.946Z,4.28
2023-03-15T03:30:09.259Z,4.15
2023-03-15T03:31:26.202Z,4.05
2023-03-15T03:32:28.276Z,4.63
2023-03-15T03:33:30.053Z,4.52
2023-03-15T03:34:31.977Z,4.42
2023-03-15T03:35:33.888Z,4.20
2023-03-15T03:36:35.734Z,4.28
2023-03-15T03:37:37.509Z,4.65
2023-03-15T03:38:43.795Z,4.30
2023-03-15T03:39:46.043Z,4.22
2023-03-15T03:40:48.026Z,4.27
2023-03-15T03:41:50.106Z,4.33
2023-03-15T03:42:52.111Z,4.23
2023-03-15T03:43:53.889Z,4.42
2023-03-15T03:44:55.681Z,4.05
2023-03-15T03:46:03.280Z,4.38
2023-03-15T03:47:05.274Z,4.13
2023-03-15T03:48:07.235Z,3.98
2023-03-15T03:49:09.235Z,4.02
2023-03-15T03:50:11.650Z,4.23
2023-03-15T03:51:14.127Z,3.83
2023-03-15T03:52:16.149Z,3.80
2023-03-15T03:53:18.145Z,4.37
2023-03-15T03:54:22.643Z,4.17
2023-03-15T03:55:25.321Z,4.42
2023-03-15T03:56:27.241Z,3.80
2023-03-15T03:57:29.022Z,4.02
2023-03-15T03:58:31.545Z,4.10
2023-03-15T03:59:33.454Z,4.18
2023-03-15T04:00:35.813Z,3.98
2023-03-15T04:01:37.690Z,3.95
2023-03-15T04:02:39.440Z,4.03
2023-03-15T04:03:41.305Z,4.05
2023-03-15T04:04:43.138Z,3.95
2023-03-15T04:05:45.174Z,3.98
2023-03-15T04:06:46.996Z,3.95
2023-03-15T04:07:48.892Z,4.17
2023-03-15T04:08:57.962Z,4.02
2023-03-15T04:09:59.827Z,3.98
2023-03-15T04:11:04.203Z,4.08
2023-03-15T04:12:06.596Z,3.98
2023-03-15T04:13:08.486Z,4.08
2023-03-15T04:14:12.180Z,4.22
2023-03-15T04:15:14.047Z,4.28
2023-03-15T04:16:15.990Z,4.28
2023-03-15T04:17:17.963Z,4.33
2023-03-15T04:18:21.733Z,4.27
2023-03-15T04:19:23.637Z,4.42
2023-03-15T04:20:27.049Z,4.58
2023-03-15T04:21:31.970Z,4.60
2023-03-15T04:22:34.925Z,4.78
2023-03-15T04:23:37.593Z,4.30
2023-03-15T04:24:39.904Z,4.27
2023-03-15T04:25:42.351Z,4.37
2023-03-15T04:26:44.272Z,5.33
2023-03-15T04:27:46.405Z,4.78
2023-03-15T04:28:48.648Z,4.85
2023-03-15T04:29:50.666Z,5.03
2023-03-15T04:30:52.791Z,4.75
2023-03-15T04:32:01.501Z,4.78
2023-03-15T04:33:04.032Z,4.98
2023-03-15T04:34:05.877Z,4.78
2023-03-15T04:35:08.033Z,4.17
2023-03-15T04:36:09.896Z,4.05
2023-03-15T04:37:11.864Z,4.30
2023-03-15T04:38:13.763Z,4.15
2023-03-15T04:39:16.454Z,3.95
2023-03-15T04:40:18.383Z,3.92
2023-03-15T04:41:20.178Z,4.27
2023-03-15T04:42:22.132Z,4.28
2023-03-15T04:43:24.526Z,4.15
2023-03-15T04:44:27.564Z,4.62
2023-03-15T04:45:31.527Z,4.65
2023-03-15T04:46:34.002Z,4.42
2023-03-15T04:47:35.856Z,4.40
2023-03-15T04:48:41.635Z,4.53
2023-03-15T04:49:43.485Z,5.13
2023-03-15T04:50:45.334Z,4.65
2023-03-15T04:51:47.123Z,4.67
2023-03-15T04:52:49.779Z,4.97
2023-03-15T04:53:51.984Z,4.80
2023-03-15T04:54:53.765Z,4.10
2023-03-15T04:55:55.773Z,4.75
2023-03-15T04:56:57.691Z,4.48
2023-03-15T04:57:59.489Z,4.37
2023-03-15T04:59:02.940Z,4.70
2023-03-15T05:00:09.902Z,4.63
2023-03-15T05:01:12.861Z,4.52
2023-03-15T05:02:14.979Z,4.67
2023-03-15T05:03:16.757Z,4.82
2023-03-15T05:04:18.618Z,4.85
2023-03-15T05:05:22.571Z,4.67
2023-03-15T05:06:24.930Z,4.17
2023-03-15T05:07:26.756Z,4.45
2023-03-15T05:08:28.985Z,4.60
2023-03-15T05:09:39.625Z,4.12
2023-03-15T05:10:41.904Z,4.05
2023-03-15T05:11:43.715Z,4.43
2023-03-15T05:12:45.657Z,4.20
2023-03-15T05:13:47.463Z,4.53
2023-03-15T05:14:49.300Z,4.50
2023-03-15T05:15:51.113Z,4.23
2023-03-15T05:16:55.938Z,4.17
2023-03-15T05:17:58.256Z,4.23
2023-03-15T05:19:03.617Z,4.05
2023-03-15T05:20:12.585Z,4.12
2023-03-15T05:21:14.931Z,4.10
2023-03-15T05:22:16.919Z,4.22
2023-03-15T05:23:18.818Z,4.23
2023-03-15T05:24:21.589Z,3.95
2023-03-15T05:25:24.497Z,3.83
2023-03-15T05:26:26.289Z,3.80
2023-03-15T05:27:28.451Z,3.63
2023-03-15T05:28:31.866Z,4.12
2023-03-15T05:29:33.644Z,4.27
2023-03-15T05:30:35.429Z,3.87
2023-03-15T05:31:37.810Z,4.55
2023-03-15T05:32:39.812Z,5.18
2023-03-15T05:33:47.137Z,5.58
2023-03-15T05:34:49.071Z,5.98
2023-03-15T05:35:53.650Z,6.28
2023-03-15T05:36:55.487Z,7.00
2023-03-15T05:37:57.843Z,7.32
2023-03-15T05:39:03.219Z,9.32
2023-03-15T05:40:08.165Z,10.13
2023-03-15T05:41:18.230Z,10.18
2023-03-15T05:42:25.992Z,9.60
2023-03-15T05:43:27.878Z,9.38
2023-03-15T05:44:29.691Z,8.40
2023-03-15T05:45:31.589Z,7.03
2023-03-15T05:46:33.490Z,7.12
2023-03-15T05:47:35.275Z,6.43
2023-03-15T05:48:39.225Z,7.17
2023-03-15T05:49:41.121Z,7.52
2023-03-15T05:50:42.959Z,6.98
2023-03-15T05:51:44.841Z,6.92
2023-03-15T05:52:46.860Z,7.00
2023-03-15T05:53:48.693Z,6.27
2023-03-15T05:54:50.802Z,6.43
2023-03-15T05:55:52.570Z,7.00
2023-03-15T05:56:54.409Z,8.42
2023-03-15T05:57:56.244Z,7.20
2023-03-15T05:58:58.573Z,8.05
2023-03-15T06:00:00.482Z,7.52
2023-03-15T06:01:04.077Z,6.40
2023-03-15T06:02:06.369Z,5.88
2023-03-15T06:03:08.182Z,6.55
2023-03-15T06:04:10.106Z,6.37
2023-03-15T06:05:12.494Z,6.75
2023-03-15T06:06:14.369Z,6.67
2023-03-15T06:07:16.538Z,7.10
2023-03-15T06:08:19.773Z,6.55
2023-03-15T06:09:21.674Z,6.98
2023-03-15T06:10:23.496Z,6.52
2023-03-15T06:11:26.217Z,6.77
2023-03-15T06:12:28.028Z,7.22
2023-03-15T06:13:30.300Z,7.53
2023-03-15T06:14:32.139Z,8.18
2023-03-15T06:15:33.981Z,8.80
2023-03-15T06:16:36.333Z,9.03
2023-03-15T06:17:38.304Z,9.55
2023-03-15T06:18:42.722Z,10.37
2023-03-15T06:19:44.488Z,10.48
2023-03-15T06:20:46.313Z,10.42
2023-03-15T06:21:48.460Z,11.33
2023-03-15T06:22:50.187Z,10.22
2023-03-15T06:23:52.027Z,8.57
2023-03-15T06:24:53.847Z,10.22
2023-03-15T06:25:55.722Z,13.05
2023-03-15T06:26:58.176Z,11.97
2023-03-15T06:28:01.204Z,10.28
2023-03-15T06:29:02.981Z,10.52
2023-03-15T06:30:05.302Z,11.08
2023-03-15T06:31:12.206Z,9.58
2023-03-15T06:32:14.145Z,7.27
2023-03-15T06:33:16.788Z,6.25
2023-03-15T06:34:19.483Z,5.47
2023-03-15T06:35:21.323Z,4.83
2023-03-15T06:36:24.954Z,4.70
2023-03-15T06:37:35.050Z,4.35
2023-03-15T06:38:42.185Z,4.88
2023-03-15T06:39:44.658Z,4.95
2023-03-15T06:40:46.490Z,4.65
2023-03-15T06:41:48.251Z,5.20
2023-03-15T06:42:50.444Z,5.50
2023-03-15T06:43:52.319Z,6.07
2023-03-15T06:44:54.137Z,6.27
2023-03-15T06:45:56.853Z,6.80
2023-03-15T06:46:58.674Z,7.97
2023-03-15T06:48:00.677Z,9.92
2023-03-15T06:49:06.649Z,13.22
2023-03-15T06:50:09.627Z,12.83
2023-03-15T06:51:11.548Z,11.00
2023-03-15T06:52:13.882Z,12.30
2023-03-15T06:53:16.145Z,11.05
2023-03-15T06:54:18.053Z,9.23
2023-03-15T06:55:19.855Z,10.42
2023-03-15T06:56:22.141Z,19.68
2023-03-15T06:57:24.175Z,19.12
2023-03-15T06:58:28.971Z,32.08
2023-03-15T06:59:31.046Z,23.05
2023-03-15T07:00:32.900Z,19.15
2023-03-15T07:01:35.190Z,28.07
2023-03-15T07:02:37.866Z,17.58
2023-03-15T07:03:40.562Z,18.03
2023-03-15T07:04:42.407Z,12.73
2023-03-15T07:05:45.538Z,7.98
2023-03-15T07:06:47.373Z,8.25
2023-03-15T07:07:49.581Z,8.67
2023-03-15T07:08:52.096Z,8.28
2023-03-15T07:09:55.218Z,8.20
2023-03-15T07:10:57.773Z,7.17
2023-03-15T07:11:59.695Z,7.05
2023-03-15T07:13:01.837Z,7.48
2023-03-15T07:14:03.844Z,6.95
2023-03-15T07:15:05.970Z,6.33
2023-03-15T07:16:07.883Z,5.87
2023-03-15T07:17:09.869Z,5.48
2023-03-15T07:18:11.789Z,5.83
2023-03-15T07:19:13.579Z,5.97
2023-03-15T07:20:15.772Z,7.05
2023-03-15T07:21:17.644Z,6.77
2023-03-15T07:22:19.451Z,7.67
2023-03-15T07:23:21.259Z,8.25
2023-03-15T07:24:23.037Z,7.27
2023-03-15T07:25:25.997Z,6.88
2023-03-15T07:26:27.946Z,5.95
2023-03-15T07:27:30.309Z,5.25
2023-03-15T07:28:32.814Z,5.28
2023-03-15T07:29:34.782Z,7.85
2023-03-15T07:30:36.658Z,10.58
2023-03-15T07:31:38.561Z,6.43
2023-03-15T07:32:40.793Z,5.83
2023-03-15T07:33:42.790Z,6.05
2023-03-15T07:34:44.756Z,6.27
2023-03-15T07:35:46.664Z,5.73
2023-03-15T07:36:48.705Z,6.73
2023-03-15T07:37:51.275Z,6.40
2023-03-15T07:38:54.237Z,6.05
2023-03-15T07:39:56.128Z,5.75
2023-03-15T07:40:58.706Z,5.58
2023-03-15T07:42:00.873Z,5.67
2023-03-15T07:43:02.700Z,5.25
2023-03-15T07:44:04.824Z,5.37
2023-03-15T07:45:07.822Z,5.37
2023-03-15T07:46:09.623Z,4.77
2023-03-15T07:47:11.875Z,4.67
2023-03-15T07:48:14.300Z,4.87
2023-03-15T07:49:16.862Z,5.03
2023-03-15T07:50:18.819Z,5.35
2023-03-15T07:51:20.620Z,5.10
2023-03-15T07:52:22.974Z,5.20
2023-03-15T07:53:25.319Z,5.48
2023-03-15T07:54:29.501Z,5.63
2023-03-15T07:55:35.337Z,5.65
2023-03-15T07:56:37.238Z,5.78
2023-03-15T07:57:39.231Z,5.70
2023-03-15T07:58:41.699Z,5.85
2023-03-15T07:59:43.677Z,6.22
2023-03-15T08:00:45.756Z,6.15
2023-03-15T08:01:47.603Z,6.13
2023-03-15T08:02:50.134Z,6.07
2023-03-15T08:03:52.075Z,5.93
2023-03-15T08:04:53.993Z,6.17
2023-03-15T08:05:56.539Z,6.13
2023-03-15T08:06:58.540Z,6.42
2023-03-15T08:08:01.170Z,6.63
2023-03-15T08:09:05.775Z,6.55
2023-03-15T08:10:08.167Z,6.77
2023-03-15T08:11:10.499Z,6.97
2023-03-15T08:12:12.294Z,7.25
2023-03-15T08:13:14.403Z,6.83
2023-03-15T08:14:16.226Z,6.55
2023-03-15T08:15:18.753Z,7.02
2023-03-15T08:16:20.654Z,6.58
2023-03-15T08:17:23.994Z,6.72
2023-03-15T08:18:29.003Z,7.37
2023-03-15T08:19:30.928Z,7.32
2023-03-15T08:20:35.790Z,7.32
2023-03-15T08:21:37.929Z,7.92
2023-03-15T08:22:39.772Z,7.90
2023-03-15T08:23:42.083Z,7.40
2023-03-15T08:24:45.519Z,7.38
2023-03-15T08:25:48.140Z,7.83
2023-03-15T08:26:51.181Z,7.25
2023-03-15T08:27:53.663Z,7.80
2023-03-15T08:28:56.698Z,8.23
2023-03-15T08:29:58.505Z,8.40
2023-03-15T08:31:00.475Z,8.25
2023-03-15T08:32:02.256Z,7.53
2023-03-15T08:33:04.221Z,7.62
2023-03-15T08:34:06.034Z,7.68
2023-03-15T08:35:08.352Z,7.87
2023-03-15T08:36:10.107Z,8.17
2023-03-15T08:37:12.152Z,8.10
2023-03-15T08:38:14.747Z,8.03
2023-03-15T08:39:16.602Z,8.30
2023-03-15T08:40:26.498Z,8.50
2023-03-15T08:41:28.430Z,8.23
2023-03-15T08:42:30.302Z,8.52
2023-03-15T08:43:32.238Z,8.48
2023-03-15T08:44:36.149Z,9.07
2023-03-15T08:45:56.601Z,8.77
2023-03-15T08:47:00.214Z,7.85
2023-03-15T08:48:02.153Z,8.22
2023-03-15T08:49:04.250Z,8.77
2023-03-15T08:50:08.963Z,8.82
2023-03-15T08:51:11.738Z,8.72
2023-03-15T08:52:13.740Z,9.18
2023-03-15T08:53:15.745Z,8.47
2023-03-15T08:54:17.661Z,6.83
2023-03-15T08:55:20.125Z,6.60
2023-03-15T08:56:22.313Z,7.00
2023-03-15T08:57:26.005Z,6.93
2023-03-15T08:58:31.936Z,7.87
2023-03-15T08:59:33.820Z,8.45
2023-03-15T09:00:35.989Z,6.78
2023-03-15T09:01:40.112Z,8.07
2023-03-15T09:02:41.986Z,8.60
2023-03-15T09:03:44.070Z,7.98
2023-03-15T09:04:46.139Z,7.27
2023-03-15T09:05:48.050Z,6.28
2023-03-15T09:06:50.015Z,6.52
2023-03-15T09:07:53.278Z,6.87
2023-03-15T09:08:55.448Z,6.48
2023-03-15T09:09:57.552Z,6.35
2023-03-15T09:11:01.476Z,5.52
2023-03-15T09:12:03.528Z,5.62
2023-03-15T09:13:05.488Z,5.27
2023-03-15T09:14:07.268Z,5.42
2023-03-15T09:15:09.581Z,5.58
2023-03-15T09:16:11.424Z,5.47
2023-03-15T09:17:13.602Z,5.43
2023-03-15T09:18:15.572Z,5.73
2023-03-15T09:19:17.440Z,5.32
2023-03-15T09:20:21.978Z,4.97
2023-03-15T09:21:25.157Z,5.28
2023-03-15T09:22:38.613Z,5.17
2023-03-15T09:23:41.571Z,5.42
2023-03-15T09:24:43.382Z,4.58
2023-03-15T09:25:45.404Z,4.65
2023-03-15T09:26:47.180Z,4.75
2023-03-15T09:27:49.034Z,4.87
2023-03-15T09:28:51.000Z,4.73
2023-03-15T09:29:52.910Z,4.62
2023-03-15T09:30:55.181Z,4.73
2023-03-15T09:31:57.437Z,5.13
2023-03-15T09:32:59.417Z,4.50
2023-03-15T09:34:01.670Z,4.90
2023-03-15T09:35:05.128Z,4.80
2023-03-15T09:36:07.447Z,4.95
2023-03-15T09:37:09.814Z,5.23
2023-03-15T09:38:11.813Z,4.88
2023-03-15T09:39:13.585Z,5.00
2023-03-15T09:40:23.071Z,4.85
2023-03-15T09:41:36.825Z,5.15
2023-03-15T09:42:38.578Z,5.27
2023-03-15T09:43:49.525Z,5.07
2023-03-15T09:45:18.798Z,5.25
2023-03-15T09:46:31.928Z,5.13
2023-03-15T09:47:52.342Z,5.15
2023-03-15T09:49:09.730Z,5.47
2023-03-15T09:50:21.659Z,5.92
2023-03-15T09:51:43.890Z,5.27
2023-03-15T09:52:50.954Z,5.68
2023-03-15T09:54:00.769Z,5.70
2023-03-15T09:55:28.870Z,5.72
2023-03-15T09:56:37.735Z,5.47
2023-03-15T09:57:48.115Z,5.35
2023-03-15T09:58:54.443Z,5.52
2023-03-15T09:59:58.002Z,5.33
2023-03-15T10:01:05.961Z,5.07
2023-03-15T10:02:16.866Z,4.95
2023-03-15T10:03:23.312Z,5.13
2023-03-15T10:04:29.128Z,4.98
2023-03-15T10:05:50.084Z,4.97
2023-03-15T10:07:00.340Z,4.98
2023-03-15T10:08:02.178Z,5.23
2023-03-15T10:09:12.020Z,5.43
2023-03-15T10:10:28.405Z,5.40
2023-03-15T10:11:42.826Z,4.78
2023-03-15T10:12:59.277Z,5.28
2023-03-15T10:14:06.558Z,5.93
2023-03-15T10:15:41.989Z,5.95
2023-03-15T10:16:47.246Z,5.60
2023-03-15T10:17:57.918Z,5.80
2023-03-15T10:19:07.962Z,6.02
2023-03-15T10:20:18.950Z,5.45
2023-03-15T10:21:44.078Z,5.90
2023-03-15T10:23:16.707Z,5.68
2023-03-15T10:24:35.844Z,5.77
2023-03-15T10:25:37.939Z,5.52
2023-03-15T10:26:39.941Z,5.32
2023-03-15T10:27:46.738Z,5.93
2023-03-15T10:28:50.119Z,5.22
2023-03-15T10:29:55.885Z,4.70
2023-03-15T10:31:01.068Z,4.92
2023-03-15T10:32:05.477Z,4.65
2023-03-15T10:33:21.606Z,5.22
2023-03-15T10:34:26.148Z,4.87
2023-03-15T10:35:27.933Z,4.47
2023-03-15T10:36:30.125Z,4.93
2023-03-15T10:37:32.013Z,4.63
2023-03-15T10:38:36.326Z,4.77
2023-03-15T10:39:38.352Z,4.67
2023-03-15T10:40:44.246Z,4.70
2023-03-15T10:41:48.569Z,4.60
2023-03-15T10:42:50.558Z,4.42
2023-03-15T10:44:04.819Z,4.67
2023-03-15T10:45:21.356Z,4.32
2023-03-15T10:46:24.576Z,4.47
2023-03-15T10:47:27.528Z,4.25
2023-03-15T10:48:35.793Z,4.48
2023-03-15T10:49:41.635Z,4.03
2023-03-15T10:50:43.457Z,3.95
2023-03-15T10:51:47.022Z,3.60
2023-03-15T10:52:51.371Z,3.43
2023-03-15T10:54:05.112Z,3.72
2023-03-15T10:55:19.142Z,3.65
2023-03-15T10:56:26.154Z,3.55
2023-03-15T10:57:34.269Z,3.25
2023-03-15T10:58:42.914Z,3.43
2023-03-15T11:00:33.576Z,2.93
2023-03-15T11:01:35.971Z,3.00
2023-03-15T11:02:37.887Z,3.43
2023-03-15T11:03:41.183Z,3.65
2023-03-15T11:04:45.083Z,4.27
2023-03-15T11:05:49.797Z,5.37
2023-03-15T11:06:57.292Z,5.00
2023-03-15T11:08:00.894Z,4.52
2023-03-15T11:09:19.445Z,5.18
2023-03-15T11:10:23.771Z,5.55
2023-03-15T11:11:25.704Z,3.57
2023-03-15T11:12:30.064Z,2.67
2023-03-15T11:13:34.560Z,2.22
2023-03-15T11:14:48.599Z,2.32
2023-03-15T11:15:55.106Z,1.75
2023-03-15T11:16:59.594Z,1.88
2023-03-15T11:18:01.378Z,1.73
2023-03-15T11:19:12.637Z,1.43
2023-03-15T11:20:30.817Z,1.25
2023-03-15T11:21:34.233Z,1.42
2023-03-15T11:22:36.070Z,1.60
2023-03-15T11:23:44.468Z,1.80
2023-03-15T11:24:46.376Z,3.67
2023-03-15T11:25:48.227Z,4.23
2023-03-15T11:26:53.429Z,4.75
2023-03-15T11:27:55.461Z,4.62
2023-03-15T11:29:05.320Z,4.20
2023-03-15T11:30:14.719Z,3.77
2023-03-15T11:31:25.943Z,2.78
2023-03-15T11:32:30.669Z,2.37
2023-03-15T11:33:38.453Z,1.95
2023-03-15T11:34:58.825Z,1.75
2023-03-15T11:36:06.088Z,2.03
2023-03-15T11:37:16.797Z,1.62
2023-03-15T11:38:33.325Z,1.65
2023-03-15T11:40:15.529Z,1.47
2023-03-15T11:41:38.602Z,1.68
2023-03-15T11:43:17.725Z,1.27
2023-03-15T11:44:39.740Z,1.77
2023-03-15T11:45:58.551Z,2.80
2023-03-15T11:47:26.521Z,3.05
2023-03-15T11:48:52.823Z,3.05
2023-03-15T11:49:58.159Z,3.07
2023-03-15T11:51:01.401Z,2.93
2023-03-15T11:52:04.229Z,2.48
2023-03-15T11:53:06.983Z,2.85
2023-03-15T11:54:13.955Z,3.30
2023-03-15T11:55:19.585Z,2.63
2023-03-15T11:56:45.351Z,2.57
2023-03-15T11:57:48.559Z,2.25
2023-03-15T11:59:13.086Z,2.43
2023-03-15T12:00:26.992Z,2.63
2023-03-15T12:01:28.930Z,2.33
2023-03-15T12:02:31.249Z,2.40
2023-03-15T12:03:42.866Z,3.32
2023-03-15T12:04:46.700Z,3.67
2023-03-15T12:05:51.118Z,4.08
2023-03-15T12:06:55.782Z,3.85
2023-03-15T12:08:00.758Z,3.97
2023-03-15T12:09:32.402Z,3.45
2023-03-15T12:10:46.436Z,3.70
2023-03-15T12:11:48.480Z,3.90
2023-03-15T12:12:58.904Z,3.50
2023-03-15T12:14:00.644Z,3.55
2023-03-15T12:15:02.879Z,4.22
2023-03-15T12:16:06.798Z,3.28
2023-03-15T12:17:23.681Z,2.48
2023-03-15T12:18:52.636Z,3.18
2023-03-15T12:20:14.042Z,3.22
2023-03-15T12:21:32.634Z,3.03
2023-03-15T12:22:35.401Z,2.68
2023-03-15T12:23:42.644Z,2.65
2023-03-15T12:24:46.310Z,2.85
2023-03-15T12:25:59.645Z,3.03
2023-03-15T12:27:21.721Z,1.87
2023-03-15T12:28:31.634Z,2.22
2023-03-15T12:29:36.193Z,2.02
2023-03-15T12:30:43.031Z,2.25
2023-03-15T12:31:57.283Z,3.08
2023-03-15T12:33:02.023Z,2.65
2023-03-15T12:34:04.418Z,2.22
2023-03-15T12:35:16.293Z,2.42
2023-03-15T12:36:30.595Z,2.20
2023-03-15T12:37:43.845Z,2.12
2023-03-15T12:38:58.371Z,2.00
2023-03-15T12:40:14.955Z,2.12
2023-03-15T12:41:37.566Z,2.32
2023-03-15T12:42:39.230Z,2.23
2023-03-15T12:43:45.625Z,2.35
2023-03-15T12:44:47.417Z,2.15
2023-03-15T12:45:49.494Z,2.30
2023-03-15T12:46:51.381Z,2.05
2023-03-15T12:47:53.148Z,2.48
2023-03-15T12:49:06.855Z,2.43
2023-03-15T12:50:45.976Z,2.20
2023-03-15T12:52:26.045Z,3.57
2023-03-15T12:53:39.930Z,2.42
2023-03-15T12:55:11.964Z,2.15
2023-03-15T12:56:55.135Z,2.17
2023-03-15T12:57:58.052Z,2.40
2023-03-15T12:59:10.028Z,2.27
2023-03-15T13:00:16.764Z,2.72
2023-03-15T13:01:19.277Z,2.73
2023-03-15T13:02:43.322Z,2.75
2023-03-15T13:03:45.754Z,2.78
2023-03-15T13:04:49.816Z,2.90
2023-03-15T13:06:03.915Z,2.73
2023-03-15T13:07:23.957Z,2.57
2023-03-15T13:08:32.012Z,2.60
2023-03-15T13:10:03.585Z,2.48
2023-03-15T13:11:20.140Z,2.22
2023-03-15T13:12:31.721Z,2.58
2023-03-15T13:14:05.835Z,2.23
2023-03-15T13:15:30.191Z,2.12
2023-03-15T13:16:55.383Z,2.58
2023-03-15T13:17:59.404Z,2.93
2023-03-15T13:19:12.419Z,3.70
2023-03-15T13:20:58.782Z,5.35
2023-03-15T13:22:21.647Z,3.53
2023-03-15T13:23:29.451Z,3.28
2023-03-15T13:25:00.417Z,3.35
2023-03-15T13:26:51.846Z,2.73
2023-03-15T13:28:00.345Z,3.25
2023-03-15T13:29:10.832Z,3.10
2023-03-15T13:30:35.304Z,2.62
2023-03-15T13:31:37.873Z,2.55
2023-03-15T13:32:39.756Z,2.67
2023-03-15T13:33:41.857Z,2.75
2023-03-15T13:34:48.101Z,2.72
2023-03-15T13:36:02.244Z,3.17
2023-03-15T13:37:25.808Z,3.43
2023-03-15T13:38:41.443Z,3.85
2023-03-15T13:39:54.341Z,4.18
2023-03-15T13:40:57.515Z,4.15
2023-03-15T13:42:02.834Z,4.07
2023-03-15T13:43:12.009Z,4.08
2023-03-15T13:44:21.863Z,4.43
2023-03-15T13:45:23.701Z,4.33
2023-03-15T13:46:29.334Z,4.40
2023-03-15T13:47:31.320Z,3.97
2023-03-15T13:48:37.939Z,3.88
2023-03-15T13:49:39.774Z,3.58
2023-03-15T13:50:41.910Z,4.33
2023-03-15T13:51:44.710Z,4.40
2023-03-15T13:52:48.447Z,4.48
2023-03-15T13:53:54.061Z,4.53
2023-03-15T13:54:56.088Z,4.48
2023-03-15T13:55:58.331Z,4.77
2023-03-15T13:57:05.159Z,5.78
2023-03-15T13:58:09.445Z,4.78
2023-03-15T13:59:12.679Z,4.60
2023-03-15T14:00:17.794Z,4.47
2023-03-15T14:01:23.234Z,4.48
2023-03-15T14:02:52.555Z,5.25
2023-03-15T14:04:06.315Z,6.02
2023-03-15T14:05:19.868Z,4.97
2023-03-15T14:06:24.653Z,5.40
2023-03-15T14:07:28.034Z,5.18
2023-03-15T14:08:33.637Z,5.02
2023-03-15T14:09:35.715Z,4.70
2023-03-15T14:10:39.398Z,5.17
2023-03-15T14:11:43.272Z,5.50
2023-03-15T14:12:45.919Z,5.95
2023-03-15T14:13:54.127Z,4.95
2023-03-15T14:14:55.891Z,4.87
2023-03-15T14:16:12.499Z,5.37
2023-03-15T14:17:29.778Z,6.45
2023-03-15T14:18:38.383Z,5.63
2023-03-15T14:19:53.381Z,4.87
2023-03-15T14:21:02.053Z,4.85
2023-03-15T14:22:15.454Z,4.80
2023-03-15T14:23:19.781Z,5.03
2023-03-15T14:24:40.140Z,5.32
2023-03-15T14:25:42.451Z,7.12
2023-03-15T14:26:44.931Z,6.03
2023-03-15T14:27:47.136Z,6.43
2023-03-15T14:29:01.962Z,6.03
2023-03-15T14:30:04.764Z,6.90
2023-03-15T14:31:23.373Z,6.85